Time;durP1;ratioP1;P1;durP2;ratioP2;P2;SDS_P1;SDS_P2;PMS_P1;PMS_P2;Temp;Humidity;BMP_temperature;BMP_pressure;BME280_temperature;BME280_humidity;BME280_pressure;Samples;Min_cycle;Max_cycle;Signal;HPM_P1;HPM_P2
2023/10/15 00:00:25;;;;;;;6.00;3.80;;;;;;;16.44;100.00;99479.10;89132;278;136754;-77
2023/10/15 00:02:27;;;;;;;7.00;4.60;;;;;;;16.42;100.00;99478.16;88987;274;23983;-77
2023/10/15 00:06:58;;;;;;;4.90;3.70;;;;;;;16.36;100.00;99470.77;87230;304;602960;-79
2023/10/15 00:09:00;;;;;;;5.90;4.20;;;;;;;16.34;100.00;99472.36;87787;293;137236;-79
2023/10/15 00:11:02;;;;;;;6.20;4.40;;;;;;;16.33;100.00;99468.36;87883;292;22558;-79
2023/10/15 00:13:06;;;;;;;8.40;5.00;;;;;;;16.32;100.00;99469.05;88133;289;136531;-78
2023/10/15 00:15:18;;;;;;;7.90;5.20;;;;;;;16.30;100.00;99469.33;88201;288;25226;-75
2023/10/15 00:17:21;;;;;;;4.90;3.90;;;;;;;16.30;100.00;99466.81;88183;288;136333;-75
2023/10/15 00:19:23;;;;;;;4.90;4.30;;;;;;;16.29;100.00;99469.59;88273;288;22540;-75
2023/10/15 00:21:27;;;;;;;8.10;5.40;;;;;;;16.27;100.00;99460.79;87714;280;412278;-76
2023/10/15 00:23:31;;;;;;;5.60;3.70;;;;;;;16.26;100.00;99459.59;88521;280;24270;-77
2023/10/15 00:25:37;;;;;;;6.40;4.00;;;;;;;16.24;100.00;99456.77;88170;280;136479;-76
2023/10/15 00:27:42;;;;;;;4.00;3.50;;;;;;;16.22;100.00;99452.88;88479;280;24600;-78
2023/10/15 00:29:44;;;;;;;9.30;4.40;;;;;;;16.23;100.00;99458.80;88355;287;136760;-79
2023/10/15 00:31:47;;;;;;;10.00;5.20;;;;;;;16.20;100.00;99462.58;88456;285;25171;-80
2023/10/15 00:33:50;;;;;;;5.90;4.20;;;;;;;16.21;100.00;99462.91;88387;284;136682;-77
2023/10/15 00:35:55;;;;;;;9.60;4.50;;;;;;;16.20;100.00;99460.64;88525;279;25128;-79
2023/10/15 00:37:57;;;;;;;8.80;4.50;;;;;;;16.20;100.00;99469.04;88147;280;136386;-78
2023/10/15 00:39:59;;;;;;;7.10;4.50;;;;;;;16.20;100.00;99470.27;89050;284;22529;-77
2023/10/15 00:42:01;;;;;;;8.70;4.70;;;;;;;16.18;100.00;99467.94;89552;282;136299;-78
2023/10/15 00:44:09;;;;;;;7.30;4.90;;;;;;;16.17;100.00;99462.63;88679;283;136497;-78
2023/10/15 00:46:13;;;;;;;4.10;3.80;;;;;;;16.15;100.00;99461.06;88352;286;22623;-78
2023/10/15 00:48:36;;;;;;;8.30;4.10;;;;;;;16.14;100.00;99463.45;88253;284;138121;-79
2023/10/15 00:50:39;;;;;;;3.70;3.40;;;;;;;16.13;100.00;99462.69;88283;287;23771;-79
2023/10/15 00:52:42;;;;;;;6.90;4.10;;;;;;;16.10;100.00;99461.14;88305;284;136662;-80
2023/10/15 00:54:46;;;;;;;5.20;3.50;;;;;;;16.09;100.00;99462.15;88595;285;23133;-78
2023/10/15 00:56:50;;;;;;;7.10;3.70;;;;;;;16.05;100.00;99458.87;88293;285;136258;-78
2023/10/15 01:00:54;;;;;;;7.30;3.80;;;;;;;16.01;100.00;99454.60;88263;282;138057;-77
2023/10/15 01:02:57;;;;;;;7.60;4.50;;;;;;;15.99;100.00;99455.17;88367;278;22633;-77
2023/10/15 01:05:00;;;;;;;7.60;4.80;;;;;;;15.97;100.00;99453.05;88649;281;136654;-76
2023/10/15 01:07:32;;;;;;;5.90;4.00;;;;;;;15.95;100.00;99451.89;88793;281;23536;-78
2023/10/15 01:09:29;;;;;;;7.10;4.90;;;;;;;15.93;100.00;99453.58;88619;274;138337;-78
2023/10/15 01:11:31;;;;;;;5.30;3.60;;;;;;;15.90;100.00;99452.13;88665;275;22553;-78
2023/10/15 01:13:34;;;;;;;5.80;3.90;;;;;;;15.89;100.00;99451.09;88738;281;138658;-76
2023/10/15 01:15:41;;;;;;;5.00;4.60;;;;;;;15.87;100.00;99450.04;88817;273;22549;-76
2023/10/15 01:17:43;;;;;;;5.10;3.80;;;;;;;15.83;100.00;99445.40;88690;281;136993;-76
2023/10/15 01:19:45;;;;;;;5.80;3.60;;;;;;;15.83;100.00;99447.55;88878;282;26209;-77
2023/10/15 01:21:57;;;;;;;4.30;4.00;;;;;;;15.82;100.00;99446.73;88512;273;136837;-78
2023/10/15 01:24:07;;;;;;;4.70;3.40;;;;;;;15.79;100.00;99446.59;88945;281;24054;-77
2023/10/15 01:26:23;;;;;;;4.80;3.30;;;;;;;15.77;100.00;99438.81;88630;282;22615;-76
2023/10/15 01:28:36;;;;;;;9.40;4.20;;;;;;;15.76;100.00;99436.66;88399;278;136657;-76
2023/10/15 01:30:41;;;;;;;6.10;3.90;;;;;;;15.75;100.00;99435.40;88633;281;23711;-75
2023/10/15 01:32:44;;;;;;;5.70;4.20;;;;;;;15.73;100.00;99438.11;88518;273;136748;-74
2023/10/15 01:34:49;;;;;;;5.00;4.00;;;;;;;15.71;100.00;99428.96;88575;281;23054;-75
2023/10/15 01:36:56;;;;;;;7.30;5.00;;;;;;;15.69;100.00;99429.36;88667;275;136563;-74
2023/10/15 01:38:58;;;;;;;4.90;3.90;;;;;;;15.66;100.00;99426.24;88471;280;25284;-76
2023/10/15 01:41:04;;;;;;;5.10;3.90;;;;;;;15.62;100.00;99421.23;88501;274;136712;-78
2023/10/15 01:43:15;;;;;;;;;;;;;;;15.61;100.00;99421.48;88775;274;22674;-78
2023/10/15 01:45:30;;;;;;;6.70;3.90;;;;;;;15.58;100.00;99418.66;88478;273;123202;-74
2023/10/15 01:47:35;;;;;;;6.30;4.70;;;;;;;15.56;100.00;99419.00;88484;279;23770;-77
2023/10/15 01:49:37;;;;;;;6.50;3.80;;;;;;;15.55;100.00;99422.41;88475;274;136646;-77
2023/10/15 01:51:39;;;;;;;5.30;3.80;;;;;;;15.51;100.00;99424.48;88739;281;22558;-76
2023/10/15 01:53:45;;;;;;;5.00;3.50;;;;;;;15.49;100.00;99424.90;88619;273;137388;-75
2023/10/15 01:55:56;;;;;;;5.10;3.30;;;;;;;15.46;100.00;99419.64;88698;278;22524;-76
2023/10/15 01:58:04;;;;;;;4.30;4.00;;;;;;;15.44;100.00;99420.89;88357;281;137674;-73
2023/10/15 02:02:29;;;;;;;5.20;3.60;;;;;;;15.39;100.00;99422.14;88451;274;22550;-74
2023/10/15 02:04:41;;;;;;;6.10;4.00;;;;;;;15.35;100.00;99421.02;88644;278;136669;-73
2023/10/15 02:06:43;;;;;;;8.10;4.50;;;;;;;15.34;100.00;99420.59;88607;281;22530;-75
2023/10/15 02:08:46;;;;;;;5.50;3.70;;;;;;;15.31;100.00;99420.45;88270;280;136713;-73
2023/10/15 02:10:48;;;;;;;5.30;4.10;;;;;;;15.29;100.00;99416.17;88571;279;24171;-74
2023/10/15 02:13:05;;;;;;;5.10;4.10;;;;;;;15.28;100.00;99414.75;88534;274;137131;-76
2023/10/15 02:15:15;;;;;;;4.20;3.80;;;;;;;15.25;100.00;99418.08;88684;279;24042;-74
2023/10/15 02:17:24;;;;;;;6.30;4.40;;;;;;;15.21;100.00;99413.34;88387;275;138088;-74
2023/10/15 02:19:40;;;;;;;8.30;4.40;;;;;;;15.17;100.00;99413.61;88661;282;23977;-76
2023/10/15 02:21:49;;;;;;;4.30;3.90;;;;;;;15.14;100.00;99411.24;88670;275;136621;-79
2023/10/15 02:23:51;;;;;;;6.30;3.90;;;;;;;15.12;100.00;99417.59;88795;273;22536;-73
2023/10/15 02:25:58;;;;;;;5.40;3.70;;;;;;;15.10;100.00;99415.89;88461;279;137428;-76
2023/10/15 02:28:01;;;;;;;4.70;3.50;;;;;;;15.08;100.00;99414.98;88469;275;24951;-75
2023/10/15 02:30:05;;;;;;;8.70;5.30;;;;;;;15.07;100.00;99410.96;88427;281;151778;-73
2023/10/15 02:34:41;;;;;;;6.20;5.00;;;;;;;15.05;100.00;99409.20;88428;274;25217;-75
2023/10/15 02:36:43;;;;;;;;;;;;;;;15.04;100.00;99412.08;88364;278;137948;-74
2023/10/15 02:38:54;;;;;;;6.00;4.60;;;;;;;15.02;100.00;99406.89;88500;279;22619;-73
2023/10/15 02:41:06;;;;;;;5.20;4.10;;;;;;;15.00;100.00;99401.38;88405;282;136706;-77
2023/10/15 02:43:08;;;;;;;6.40;4.60;;;;;;;14.99;100.00;99401.27;88809;279;23840;-76
2023/10/15 02:45:14;;;;;;;5.30;4.10;;;;;;;14.98;100.00;99404.67;88734;275;137399;-75
2023/10/15 02:49:53;;;;;;;8.10;5.00;;;;;;;14.98;100.00;99403.23;88396;281;137969;-72
2023/10/15 02:51:56;;;;;;;5.00;4.50;;;;;;;14.98;100.00;99402.09;88455;282;22924;-73
2023/10/15 02:54:24;;;;;;;7.60;4.30;;;;;;;14.97;100.00;99401.80;88556;275;135870;-70
2023/10/15 02:56:21;;;;;;;9.40;5.50;;;;;;;14.94;100.00;99392.40;88410;281;138642;-74
2023/10/15 02:58:28;;;;;;;9.30;5.20;;;;;;;14.91;100.00;99396.98;88611;275;24036;-73
2023/10/15 03:00:33;;;;;;;8.20;5.00;;;;;;;14.90;100.00;99398.03;88373;278;138222;-74
2023/10/15 03:02:42;;;;;;;7.90;4.70;;;;;;;14.89;100.00;99400.80;88513;282;25334;-74
2023/10/15 03:04:49;;;;;;;5.10;4.20;;;;;;;14.86;100.00;99401.44;88530;281;137028;-74
2023/10/15 03:06:57;;;;;;;10.40;5.20;;;;;;;14.82;100.00;99393.42;88737;280;22530;-73
2023/10/15 03:08:59;;;;;;;11.30;5.50;;;;;;;14.72;100.00;99384.55;88470;281;136958;-70
2023/10/15 03:11:12;;;;;;;7.80;4.90;;;;;;;14.78;100.00;99403.06;88467;273;23746;-74
2023/10/15 03:13:14;;;;;;;6.00;4.90;;;;;;;14.77;100.00;99400.90;88458;280;137101;-74
2023/10/15 03:15:17;;;;;;;7.60;5.20;;;;;;;14.76;100.00;99395.35;88572;281;22754;-72
2023/10/15 03:17:29;;;;;;;8.30;5.50;;;;;;;14.75;100.00;99398.60;88453;277;136944;-72
2023/10/15 03:19:33;;;;;;;6.30;4.40;;;;;;;14.74;100.00;99404.44;88580;280;22630;-71
2023/10/15 03:21:39;;;;;;;4.20;3.80;;;;;;;14.72;100.00;99404.69;88424;280;138138;-73
2023/10/15 03:23:43;;;;;;;6.50;4.50;;;;;;;14.71;100.00;99395.27;88604;273;25080;-74
2023/10/15 03:25:57;;;;;;;5.60;4.10;;;;;;;14.70;100.00;99392.06;88629;280;136960;-74
2023/10/15 03:28:00;;;;;;;6.60;5.00;;;;;;;14.69;100.00;99394.77;88754;280;22673;-74
2023/10/15 03:30:04;;;;;;;9.10;5.20;;;;;;;14.69;100.00;99392.59;88489;281;136429;-76
2023/10/15 03:32:09;;;;;;;7.30;4.60;;;;;;;14.69;100.00;99387.96;88516;274;136991;-74
2023/10/15 03:36:17;;;;;;;5.10;4.30;;;;;;;14.73;100.00;99379.77;88392;274;137329;-72
2023/10/15 03:38:23;;;;;;;7.70;5.40;;;;;;;14.72;100.00;99382.02;88563;281;23849;-73
2023/10/15 03:40:46;;;;;;;6.30;4.80;;;;;;;14.72;100.00;99387.70;88329;275;137120;-73
2023/10/15 03:42:49;;;;;;;6.60;4.10;;;;;;;14.69;100.00;99388.41;88638;282;26571;-71
2023/10/15 03:44:59;;;;;;;7.70;4.30;;;;;;;14.68;100.00;99390.45;88414;281;137960;-73
2023/10/15 03:47:04;;;;;;;6.40;4.40;;;;;;;14.65;100.00;99388.38;88582;273;22537;-75
2023/10/15 03:49:10;;;;;;;7.70;4.80;;;;;;;14.61;100.00;99385.45;88359;281;137990;-73
2023/10/15 03:51:15;;;;;;;8.30;4.60;;;;;;;14.57;100.00;99384.14;88359;282;22560;-73
2023/10/15 03:53:20;;;;;;;4.90;4.00;;;;;;;14.55;100.00;99383.02;88408;274;137126;-75
2023/10/15 03:55:23;;;;;;;5.40;4.90;;;;;;;14.51;100.00;99380.77;88631;274;22541;-75
2023/10/15 03:57:28;;;;;;;9.50;4.90;;;;;;;14.46;100.00;99387.11;88533;280;137798;-74
2023/10/15 03:59:30;;;;;;;5.80;4.10;;;;;;;14.44;100.00;99389.20;88590;282;24052;-73
2023/10/15 04:01:37;;;;;;;7.10;4.40;;;;;;;14.42;100.00;99389.88;88109;282;136878;-73
2023/10/15 04:03:43;;;;;;;6.60;4.80;;;;;;;14.41;100.00;99386.31;88215;279;25109;-70
2023/10/15 04:06:01;;;;;;;8.90;5.00;;;;;;;14.33;100.00;99376.48;88314;274;136898;-72
2023/10/15 04:08:03;;;;;;;8.40;4.70;;;;;;;14.38;100.00;99383.25;88425;274;138642;-73
2023/10/15 04:10:08;;;;;;;7.20;4.60;;;;;;;14.36;100.00;99382.56;88510;279;22548;-74
2023/10/15 04:12:10;;;;;;;;;;;;;;;14.34;100.00;99383.63;88775;281;137086;-73
2023/10/15 04:14:17;;;;;;;7.60;4.80;;;;;;;14.32;100.00;99385.25;89818;281;22520;-74
2023/10/15 04:16:22;;;;;;;9.40;4.70;;;;;;;14.29;100.00;99378.45;89866;281;137002;-72
2023/10/15 04:18:25;;;;;;;6.90;4.70;;;;;;;14.27;100.00;99376.67;89868;280;22476;-75
2023/10/15 04:20:35;;;;;;;5.30;4.70;;;;;;;14.25;100.00;99374.70;89648;273;136913;-73
2023/10/15 04:22:44;;;;;;;5.50;5.00;;;;;;;14.20;100.00;99374.88;88465;278;22537;-73
2023/10/15 04:24:52;;;;;;;7.70;5.00;;;;;;;14.15;100.00;99371.83;88354;281;138330;-74
2023/10/15 04:26:54;;;;;;;7.30;5.10;;;;;;;14.16;100.00;99372.77;88427;274;22808;-72
2023/10/15 04:28:56;;;;;;;5.30;4.90;;;;;;;14.13;100.00;99376.77;88349;281;136880;-71
2023/10/15 04:30:58;;;;;;;8.70;4.90;;;;;;;14.12;100.00;99382.16;88506;275;22534;-70
2023/10/15 04:33:00;;;;;;;8.70;4.70;;;;;;;14.11;100.00;99382.14;88290;281;137042;-72
2023/10/15 04:35:05;;;;;;;5.90;4.80;;;;;;;14.08;100.00;99382.66;88375;281;22402;-69
2023/10/15 04:37:10;;;;;;;4.80;4.40;;;;;;;14.05;100.00;99384.42;88345;281;136849;-71
2023/10/15 04:39:13;;;;;;;7.20;5.60;;;;;;;14.05;100.00;99387.77;88531;281;24093;-72
2023/10/15 04:41:21;;;;;;;5.50;5.00;;;;;;;14.07;100.00;99388.36;88343;274;136921;-71
2023/10/15 04:43:27;;;;;;;5.90;4.40;;;;;;;14.07;100.00;99389.39;88416;274;22547;-69
2023/10/15 04:45:40;;;;;;;6.90;5.80;;;;;;;14.08;100.00;99385.98;88305;273;137236;-71
2023/10/15 04:47:43;;;;;;;10.80;5.40;;;;;;;14.09;100.00;99388.70;88481;273;22540;-70
2023/10/15 04:49:47;;;;;;;7.30;5.50;;;;;;;14.09;100.00;99386.38;88492;274;139416;-73
2023/10/15 04:51:49;;;;;;;8.70;5.20;;;;;;;14.11;100.00;99397.46;88515;274;22529;-71
2023/10/15 04:53:50;;;;;;;6.20;4.60;;;;;;;14.16;100.00;99400.80;88288;274;136846;-69
2023/10/15 04:55:59;;;;;;;8.60;5.30;;;;;;;14.28;100.00;99401.61;88284;275;22553;-74
2023/10/15 04:58:02;;;;;;;;;;;;;;;14.36;100.00;99399.39;88321;278;136821;-71
2023/10/15 05:00:07;;;;;;;9.40;8.10;;;;;;;14.39;100.00;99395.96;88376;277;124121;-69
2023/10/15 05:02:09;;;;;;;11.60;6.60;;;;;;;14.44;100.00;99398.38;88379;282;22559;-72
2023/10/15 05:04:13;;;;;;;7.40;5.60;;;;;;;14.55;100.00;99399.04;89948;282;137368;-70
2023/10/15 05:06:14;;;;;;;5.40;4.80;;;;;;;14.71;100.00;99396.95;88437;282;26174;-69
2023/10/15 05:08:17;;;;;;;5.40;4.90;;;;;;;14.88;100.00;99393.97;88284;273;138549;-68
2023/10/15 05:10:20;;;;;;;13.00;5.80;;;;;;;15.06;100.00;99397.61;88603;273;25252;-72
2023/10/15 05:12:22;;;;;;;8.10;5.60;;;;;;;15.27;100.00;99395.89;88455;273;137394;-73
2023/10/15 05:14:25;;;;;;;5.00;4.40;;;;;;;15.50;100.00;99394.19;88442;273;22521;-70
2023/10/15 05:16:27;;;;;;;6.00;5.40;;;;;;;15.75;100.00;99394.75;88420;273;136837;-70
2023/10/15 05:18:29;;;;;;;8.90;5.30;;;;;;;15.97;100.00;99398.21;88359;274;24017;-68
2023/10/15 05:20:33;;;;;;;4.80;4.30;;;;;;;16.15;100.00;99407.17;88417;277;136926;-72
2023/10/15 05:22:35;;;;;;;12.40;5.60;;;;;;;16.33;100.00;99411.73;88400;274;25061;-71
2023/10/15 05:24:37;;;;;;;5.80;3.90;;;;;;;16.48;100.00;99410.85;88298;274;137286;-70
2023/10/15 05:26:40;;;;;;;5.80;4.50;;;;;;;16.67;100.00;99409.25;88445;274;21776;-71
2023/10/15 05:28:41;;;;;;;6.10;3.80;;;;;;;16.79;100.00;99405.77;88496;273;139428;-72
2023/10/15 05:30:44;;;;;;;4.60;4.00;;;;;;;16.88;100.00;99413.19;88493;277;22778;-71
2023/10/15 05:32:50;;;;;;;4.80;4.40;;;;;;;16.96;100.00;99415.84;88703;274;136437;-73
2023/10/15 05:34:52;;;;;;;4.20;3.60;;;;;;;17.04;100.00;99422.08;88417;274;25162;-71
2023/10/15 05:36:54;;;;;;;7.20;3.80;;;;;;;17.15;100.00;99422.78;88351;281;137158;-71
2023/10/15 05:38:55;;;;;;;6.20;3.60;;;;;;;17.34;100.00;99421.34;88382;282;22590;-71
2023/10/15 05:40:57;;;;;;;5.30;3.90;;;;;;;17.54;100.00;99416.44;88262;274;137103;-71
2023/10/15 05:42:59;;;;;;;5.80;4.40;;;;;;;17.77;100.00;99416.36;88481;274;22300;-72
2023/10/15 05:45:06;;;;;;;7.90;4.40;;;;;;;17.98;100.00;99416.75;88314;274;138159;-72
2023/10/15 05:47:09;;;;;;;5.80;3.40;;;;;;;18.16;100.00;99423.93;88520;274;22742;-69
2023/10/15 05:49:12;;;;;;;9.90;4.10;;;;;;;18.28;100.00;99422.70;88437;277;137135;-71
2023/10/15 05:51:14;;;;;;;6.50;4.00;;;;;;;18.45;100.00;99424.08;88391;273;25208;-70
2023/10/15 05:53:16;;;;;;;5.80;3.70;;;;;;;18.63;100.00;99429.56;88122;273;138262;-70
2023/10/15 05:55:19;;;;;;;3.60;3.20;;;;;;;18.91;100.00;99429.48;88364;275;24145;-69
2023/10/15 05:57:22;;;;;;;7.10;4.10;;;;;;;19.16;100.00;99420.02;88305;278;137045;-68
2023/10/15 05:59:23;;;;;;;9.00;3.60;;;;;;;19.36;100.00;99415.45;88352;274;22554;-68
2023/10/15 06:01:25;;;;;;;3.80;3.30;;;;;;;19.43;100.00;99421.52;88299;274;137083;-71
2023/10/15 06:03:27;;;;;;;5.80;3.60;;;;;;;19.41;100.00;99421.20;88325;274;24448;-79
2023/10/15 06:05:30;;;;;;;6.50;3.60;;;;;;;19.30;100.00;99425.02;91067;281;136244;-77
2023/10/15 06:07:32;;;;;;;4.40;2.90;;;;;;;19.10;100.00;99428.61;91184;283;23010;-76
2023/10/15 06:09:34;;;;;;;4.60;3.60;;;;;;;18.85;100.00;99431.13;90445;281;137018;-77
2023/10/15 06:11:36;;;;;;;7.00;3.90;;;;;;;18.66;100.00;99429.90;90079;273;22982;-77
2023/10/15 06:13:37;;;;;;;5.00;4.50;;;;;;;18.47;100.00;99427.76;90134;276;136176;-73
2023/10/15 06:15:39;;;;;;;7.60;4.80;;;;;;;18.29;100.00;99429.34;90005;274;22523;-76
2023/10/15 06:17:42;;;;;;;6.30;4.50;;;;;;;18.17;100.00;99430.08;88973;277;137766;-77
2023/10/15 06:19:44;;;;;;;7.50;3.90;;;;;;;18.05;100.00;99431.57;89115;273;22523;-78
2023/10/15 06:21:46;;;;;;;7.60;5.30;;;;;;;17.94;100.00;99435.05;89032;274;137793;-80
2023/10/15 06:23:48;;;;;;;7.60;4.70;;;;;;;17.80;100.00;99438.42;89013;274;22534;-84
2023/10/15 06:25:49;;;;;;;6.00;5.40;;;;;;;17.67;100.00;99439.46;88712;278;136806;-80
2023/10/15 06:27:51;;;;;;;7.10;5.10;;;;;;;17.56;100.00;99437.43;88916;274;22550;-81
2023/10/15 06:29:53;;;;;;;8.70;6.20;;;;;;;17.47;100.00;99439.61;88803;278;137643;-82
2023/10/15 06:31:55;;;;;;;9.20;6.00;;;;;;;17.42;100.00;99440.69;89045;281;24325;-75
2023/10/15 06:33:57;;;;;;;9.50;5.90;;;;;;;17.34;100.00;99443.26;88868;274;136586;-80
2023/10/15 06:35:58;;;;;;;9.80;7.90;;;;;;;17.30;100.00;99443.34;89026;275;22523;-81
2023/10/15 06:38:01;;;;;;;15.10;7.00;;;;;;;17.35;100.00;99442.89;89165;275;136447;-79
2023/10/15 06:40:03;;;;;;;8.70;5.90;;;;;;;17.37;100.00;99440.45;89259;283;137207;-80
2023/10/15 06:42:23;;;;;;;15.50;6.90;;;;;;;17.39;100.00;99443.47;89522;282;25158;-80
2023/10/15 06:44:24;;;;;;;9.10;7.20;;;;;;;17.40;100.00;99441.59;88961;281;137982;-83
2023/10/15 06:46:28;;;;;;;10.30;6.70;;;;;;;17.38;100.00;99444.39;89135;282;22534;-79
2023/10/15 06:48:30;;;;;;;9.40;7.10;;;;;;;17.24;100.00;99430.61;89251;282;137062;-79
2023/10/15 06:50:33;;;;;;;9.90;7.70;;;;;;;17.17;100.00;99443.90;89440;282;22552;-80
2023/10/15 06:52:38;;;;;;;8.80;6.90;;;;;;;17.01;100.00;99445.09;89799;274;137016;-80
2023/10/15 06:54:40;;;;;;;9.40;8.00;;;;;;;16.91;100.00;99451.82;90829;274;22533;-76
2023/10/15 06:56:42;;;;;;;8.20;6.20;;;;;;;16.88;100.00;99455.10;90590;275;136509;-80
2023/10/15 06:58:44;;;;;;;10.20;6.90;;;;;;;16.85;100.00;99452.98;89924;274;22547;-78
2023/10/15 07:00:45;;;;;;;9.30;6.70;;;;;;;16.82;100.00;99448.29;89108;275;136710;-79
2023/10/15 07:02:54;;;;;;;7.70;6.70;;;;;;;16.77;100.00;99449.17;89057;281;22544;-81
2023/10/15 07:05:00;;;;;;;9.60;6.60;;;;;;;16.72;100.00;99451.60;88890;282;138020;-80
2023/10/15 07:07:03;;;;;;;8.90;7.20;;;;;;;16.61;100.00;99445.98;89312;282;22544;-83
2023/10/15 07:09:06;;;;;;;9.00;6.40;;;;;;;16.60;100.00;99456.23;88964;282;136920;-79
2023/10/15 07:11:08;;;;;;;11.40;6.70;;;;;;;16.51;100.00;99459.30;89233;282;22548;-79
2023/10/15 07:13:10;;;;;;;7.00;6.30;;;;;;;16.44;100.00;99461.85;89199;281;137125;-78
2023/10/15 07:15:15;;;;;;;8.90;7.30;;;;;;;16.40;100.00;99463.02;89090;275;24361;-81
2023/10/15 07:17:17;;;;;;;14.20;7.10;;;;;;;16.38;100.00;99460.02;88792;274;137621;-79
2023/10/15 07:19:19;;;;;;;11.40;7.30;;;;;;;16.34;100.00;99458.25;89107;274;22548;-81
2023/10/15 07:21:21;;;;;;;17.50;8.10;;;;;;;16.27;100.00;99457.20;88779;274;137109;-80
2023/10/15 07:23:23;;;;;;;11.40;7.30;;;;;;;16.21;100.00;99450.65;88827;274;22666;-76
2023/10/15 07:25:24;;;;;;;11.80;8.10;;;;;;;16.16;100.00;99450.75;88883;274;136936;-79
2023/10/15 07:27:26;;;;;;;11.00;7.60;;;;;;;16.13;100.00;99447.37;89332;274;22530;-76
2023/10/15 07:29:29;;;;;;;10.30;7.00;;;;;;;16.12;100.00;99447.58;88815;278;137077;-77
2023/10/15 07:31:31;;;;;;;7.60;6.80;;;;;;;16.09;100.00;99444.95;88912;278;22542;-75
2023/10/15 07:33:32;;;;;;;7.50;6.70;;;;;;;16.06;100.00;99445.05;88959;278;137962;-76
2023/10/15 07:35:35;;;;;;;10.00;7.20;;;;;;;16.03;100.00;99445.70;89067;274;25165;-77
2023/10/15 07:37:41;;;;;;;7.00;6.40;;;;;;;16.00;100.00;99451.64;89066;275;136806;-78
2023/10/15 07:39:42;;;;;;;9.00;7.20;;;;;;;16.01;100.00;99460.19;89223;274;24131;-75
2023/10/15 07:41:45;;;;;;;9.60;6.70;;;;;;;16.01;100.00;99459.60;88778;275;136986;-75
2023/10/15 07:43:47;;;;;;;8.70;6.60;;;;;;;16.01;100.00;99463.90;88913;273;22545;-77
2023/10/15 07:45:49;;;;;;;10.40;7.50;;;;;;;16.00;100.00;99461.52;88778;281;136763;-75
2023/10/15 07:47:51;;;;;;;8.00;7.20;;;;;;;15.99;100.00;99465.43;88870;273;25137;-77
2023/10/15 07:49:52;;;;;;;17.50;8.60;;;;;;;15.97;100.00;99464.86;88840;281;137984;-78
2023/10/15 07:51:55;;;;;;;9.90;6.60;;;;;;;15.96;100.00;99473.46;88916;275;22344;-76
2023/10/15 07:53:56;;;;;;;9.40;6.20;;;;;;;15.94;100.00;99472.99;88207;274;138063;-78
2023/10/15 07:55:58;;;;;;;11.70;6.80;;;;;;;15.94;100.00;99473.37;88756;283;24185;-75
2023/10/15 07:58:00;;;;;;;8.80;6.40;;;;;;;15.94;100.00;99473.42;88226;275;138079;-76
2023/10/15 08:00:05;;;;;;;7.20;6.40;;;;;;;15.93;100.00;99475.92;88995;277;22553;-76
2023/10/15 08:02:12;;;;;;;8.20;6.40;;;;;;;15.96;100.00;99485.40;88999;277;22521;-75
2023/10/15 08:04:14;;;;;;;6.70;6.00;;;;;;;15.99;100.00;99483.27;88879;278;136917;-76
2023/10/15 08:06:16;;;;;;;7.80;5.40;;;;;;;16.01;100.00;99482.44;89011;275;22537;-77
2023/10/15 08:08:18;;;;;;;7.60;6.70;;;;;;;16.01;100.00;99482.67;88792;276;138227;-71
2023/10/15 08:10:21;;;;;;;8.50;5.60;;;;;;;16.03;100.00;99478.73;88340;275;22521;-73
2023/10/15 08:12:23;;;;;;;7.90;6.10;;;;;;;15.97;100.00;99463.46;88237;279;136707;-74
2023/10/15 08:14:24;;;;;;;6.00;5.50;;;;;;;16.05;100.00;99474.05;89102;278;22475;-80
2023/10/15 08:16:28;;;;;;;9.20;6.60;;;;;;;16.03;100.00;99471.05;90537;282;136662;-70
2023/10/15 08:18:30;;;;;;;6.50;5.40;;;;;;;16.04;100.00;99471.60;91031;282;22607;-78
2023/10/15 08:20:32;;;;;;;9.00;5.80;;;;;;;15.99;100.00;99465.65;88144;281;772980;-82
2023/10/15 08:22:34;;;;;;;7.20;5.80;;;;;;;16.04;100.00;99482.65;88369;275;22537;-81
2023/10/15 08:24:38;;;;;;;6.30;5.60;;;;;;;16.02;100.00;99485.05;88290;273;137058;-82
2023/10/15 08:26:41;;;;;;;10.50;5.70;;;;;;;16.01;100.00;99481.40;88311;275;22555;-79
2023/10/15 08:28:43;;;;;;;7.60;5.90;;;;;;;16.00;100.00;99482.86;88537;273;137190;-85
2023/10/15 08:30:45;;;;;;;9.80;6.40;;;;;;;15.97;100.00;99483.31;88370;274;25079;-81
2023/10/15 08:32:47;;;;;;;7.40;5.60;;;;;;;15.95;100.00;99484.46;88352;282;136388;-83
2023/10/15 08:34:49;;;;;;;10.70;6.00;;;;;;;15.95;100.00;99487.16;88375;281;22632;-85
2023/10/15 08:36:51;;;;;;;8.90;5.90;;;;;;;15.95;100.00;99490.38;88576;274;138019;-77
2023/10/15 08:38:53;;;;;;;9.50;6.40;;;;;;;15.97;100.00;99490.34;88375;275;23133;-82
2023/10/15 08:40:55;;;;;;;5.40;4.90;;;;;;;16.00;100.00;99492.02;88397;274;136913;-79
2023/10/15 08:43:20;;;;;;;9.30;5.90;;;;;;;16.02;100.00;99491.50;88436;274;22541;-83
2023/10/15 08:45:23;;;;;;;5.50;4.50;;;;;;;16.05;100.00;99487.73;88607;274;137927;-80
2023/10/15 08:47:26;;;;;;;7.10;5.60;;;;;;;16.07;100.00;99486.79;88530;278;22550;-87
2023/10/15 08:49:34;;;;;;;8.50;4.80;;;;;;;16.07;100.00;99491.42;88598;274;137428;-86
2023/10/15 08:51:37;;;;;;;5.80;5.30;;;;;;;16.06;100.00;99492.58;88775;274;23375;-84
2023/10/15 08:53:41;;;;;;;5.50;5.00;;;;;;;16.07;100.00;99493.98;88337;275;136841;-81
2023/10/15 08:55:43;;;;;;;6.20;5.40;;;;;;;16.09;100.00;99493.96;88695;275;24211;-75
2023/10/15 08:57:47;;;;;;;5.70;5.20;;;;;;;16.12;100.00;99494.71;90070;281;136891;-79
2023/10/15 08:59:50;;;;;;;;;;;;;;;16.15;100.00;99493.73;90270;280;24093;-72
2023/10/15 09:01:54;;;;;;;6.50;4.90;;;;;;;16.19;100.00;99492.08;89537;281;123431;-76
2023/10/15 09:03:57;;;;;;;6.30;5.60;;;;;;;16.21;100.00;99490.70;89532;275;22449;-79
2023/10/15 09:06:05;;;;;;;5.50;5.00;;;;;;;16.20;100.00;99492.27;88903;273;136573;-78
2023/10/15 09:08:08;;;;;;;5.50;4.70;;;;;;;16.18;100.00;99496.27;89362;279;138291;-76
2023/10/15 09:10:13;;;;;;;5.70;4.70;;;;;;;16.18;100.00;99500.88;88725;279;23266;-77
2023/10/15 09:12:16;;;;;;;4.80;4.10;;;;;;;16.18;100.00;99500.55;88490;281;138572;-78
2023/10/15 09:14:20;;;;;;;6.10;5.10;;;;;;;16.19;100.00;99500.63;88666;278;25165;-83
2023/10/15 09:16:22;;;;;;;7.10;5.20;;;;;;;16.20;100.00;99510.82;88590;275;137260;-82
2023/10/15 09:18:25;;;;;;;6.00;5.20;;;;;;;16.19;100.00;99510.68;88379;274;22548;-82
2023/10/15 09:20:27;;;;;;;8.30;6.10;;;;;;;16.20;100.00;99512.90;88395;278;136986;-83
2023/10/15 09:22:32;;;;;;;7.50;6.60;;;;;;;16.20;100.00;99516.28;88575;274;22481;-82
2023/10/15 09:24:36;;;;;;;6.30;5.20;;;;;;;16.21;100.00;99515.07;88419;278;136845;-84
2023/10/15 09:26:39;;;;;;;7.10;6.40;;;;;;;16.20;100.00;99513.07;88356;275;22713;-84
2023/10/15 09:28:41;;;;;;;8.80;6.50;;;;;;;16.18;100.00;99511.63;88507;278;136912;-83
2023/10/15 09:30:46;;;;;;;7.50;6.20;;;;;;;16.18;100.00;99517.17;88454;273;24798;-81
2023/10/15 09:32:49;;;;;;;6.90;6.20;;;;;;;16.19;100.00;99513.96;88300;278;136857;-81
2023/10/15 09:34:53;;;;;;;8.20;6.00;;;;;;;16.20;100.00;99517.98;88573;274;25108;-81
2023/10/15 09:36:58;;;;;;;7.40;5.90;;;;;;;16.24;100.00;99517.06;88472;273;136993;-76
2023/10/15 09:39:12;;;;;;;5.80;5.20;;;;;;;16.23;100.00;99518.06;89271;274;22830;-81
2023/10/15 09:41:15;;;;;;;9.10;6.50;;;;;;;16.22;100.00;99513.67;89676;274;138722;-75
2023/10/15 09:43:17;;;;;;;4.70;4.40;;;;;;;16.20;100.00;99509.63;89557;275;22748;-79
2023/10/15 09:45:24;;;;;;;5.00;4.30;;;;;;;16.16;100.00;99510.05;90079;282;136702;-80
2023/10/15 09:47:26;;;;;;;5.30;4.90;;;;;;;16.13;100.00;99512.16;89349;274;22548;-81
2023/10/15 09:49:33;;;;;;;7.80;5.10;;;;;;;16.12;100.00;99515.00;88245;274;138402;-69
2023/10/15 09:51:36;;;;;;;4.30;4.00;;;;;;;16.10;100.00;99516.02;88299;274;22467;-85
2023/10/15 09:53:41;;;;;;;5.30;4.70;;;;;;;16.10;100.00;99512.95;88400;281;136896;-83
2023/10/15 09:55:45;;;;;;;5.10;4.40;;;;;;;16.08;100.00;99513.38;89607;274;22555;-79